Time;durP1;ratioP1;P1;durP2;ratioP2;P2;SDS_P1;SDS_P2;PMS_P1;PMS_P2;Temp;Humidity;BMP_temperature;BMP_pressure;BME280_temperature;BME280_humidity;BME280_pressure;Samples;Min_cycle;Max_cycle;Signal;HPM_P1;HPM_P2
2022/12/15 00:40:08;;;;;;;24.73;15.27;;;-2.00;74.60;;;;;;5052036;28;20070;-89
2022/12/15 00:42:33;;;;;;;17.88;11.65;;;-2.00;74.80;;;;;;5032693;28;20120;-88
2022/12/15 00:44:59;;;;;;;19.00;12.02;;;-2.00;74.90;;;;;;5033733;28;20042;-89
2022/12/15 00:47:25;;;;;;;17.73;11.20;;;-2.00;75.50;;;;;;5032685;28;20029;-88
2022/12/15 01:22:58;;;;;;;17.15;11.07;;;-1.70;74.80;;;;;;5024857;28;20040;-90
2022/12/15 01:25:26;;;;;;;19.35;12.32;;;-1.70;74.70;;;;;;5017635;28;20033;-90
2022/12/15 01:27:52;;;;;;;19.30;12.07;;;-1.70;74.70;;;;;;5017495;28;20124;-89
2022/12/15 01:30:21;;;;;;;21.23;11.40;;;-1.70;74.70;;;;;;5017302;28;20049;-89
2022/12/15 01:32:47;;;;;;;16.42;11.20;;;-1.70;74.80;;;;;;5017231;28;20407;-90
2022/12/15 01:35:17;;;;;;;16.88;11.00;;;-1.70;74.80;;;;;;5023330;28;20495;-88
2022/12/15 01:37:43;;;;;;;21.30;12.63;;;-1.70;74.80;;;;;;5038284;28;20036;-89
2022/12/15 01:42:57;;;;;;;19.83;11.98;;;-1.70;74.80;;;;;;5050974;28;20051;-89
2022/12/15 01:45:22;;;;;;;17.60;12.10;;;-1.70;74.80;;;;;;5033771;28;20024;-89
2022/12/15 01:47:58;;;;;;;20.65;13.45;;;-1.80;74.80;;;;;;5033105;28;20025;-89
2022/12/15 01:50:25;;;;;;;18.20;11.13;;;-1.80;74.80;;;;;;5048631;28;20037;-88
2022/12/15 01:52:52;;;;;;;15.45;10.88;;;-1.80;74.90;;;;;;5037909;28;20075;-89
2022/12/15 01:55:20;;;;;;;15.25;10.63;;;-1.80;74.90;;;;;;5048636;28;20028;-89
2022/12/15 01:57:47;;;;;;;17.95;12.52;;;-1.80;75.00;;;;;;5031237;28;20032;-89
2022/12/15 02:00:18;;;;;;;16.83;11.13;;;-1.80;75.10;;;;;;5048712;28;20021;-88
2022/12/15 02:02:44;;;;;;;15.52;10.57;;;-1.90;75.10;;;;;;5050455;28;20037;-88
2022/12/15 02:05:10;;;;;;;17.38;11.70;;;-1.90;75.00;;;;;;5035225;28;20033;-88
2022/12/15 02:07:35;;;;;;;20.67;13.32;;;-1.90;75.10;;;;;;5025988;28;20036;-87
2022/12/15 02:10:06;;;;;;;19.58;12.30;;;-1.90;75.10;;;;;;5032466;28;20040;-87
2022/12/15 02:12:43;;;;;;;17.92;11.55;;;-1.90;75.10;;;;;;5029650;28;20021;-88
2022/12/15 02:15:23;;;;;;;16.67;10.10;;;-1.90;75.10;;;;;;5036358;28;20063;-87
2022/12/15 02:17:58;;;;;;;17.83;11.35;;;-1.90;75.10;;;;;;5033153;28;20021;-87
2022/12/15 02:20:55;;;;;;;17.50;11.85;;;-1.90;75.10;;;;;;5026096;28;20060;-88
2022/12/15 02:23:43;;;;;;;18.08;11.23;;;-2.00;75.20;;;;;;5029119;28;20063;-89
2022/12/15 02:26:45;;;;;;;17.35;11.40;;;-2.00;75.30;;;;;;5037360;28;20028;-88
2022/12/15 02:29:30;;;;;;;;;;;-2.00;75.40;;;;;;5034128;28;20029;-89
2022/12/15 02:32:07;;;;;;;14.88;10.73;;;-2.00;75.20;;;;;;5032265;28;19920;-88
2022/12/15 02:34:44;;;;;;;14.45;9.52;;;-2.00;75.20;;;;;;5035834;28;20499;-89
2022/12/15 02:37:12;;;;;;;16.05;10.75;;;-2.00;75.30;;;;;;5021591;28;20541;-87
2022/12/15 02:39:38;;;;;;;14.63;9.63;;;-2.00;75.30;;;;;;5047569;28;20468;-87
2022/12/15 02:42:03;;;;;;;14.95;10.07;;;-2.00;75.40;;;;;;5024703;28;20063;-88
2022/12/15 02:44:40;;;;;;;18.70;10.27;;;-2.00;75.30;;;;;;5034695;28;20615;-87
2022/12/15 02:47:08;;;;;;;18.75;11.45;;;-2.00;75.30;;;;;;5016235;28;20020;-86
2022/12/15 02:49:53;;;;;;;15.77;10.55;;;-2.00;75.30;;;;;;5032939;28;20056;-87
2022/12/15 02:52:36;;;;;;;13.45;9.13;;;-2.00;75.20;;;;;;5032172;28;20025;-87
2022/12/15 02:55:17;;;;;;;16.42;10.63;;;-2.00;75.10;;;;;;5052024;28;20032;-88
2022/12/15 02:57:53;;;;;;;14.65;10.00;;;-2.00;75.10;;;;;;5033532;28;20116;-87
2022/12/15 03:00:20;;;;;;;16.17;10.32;;;-2.00;75.00;;;;;;5036551;28;20017;-87
2022/12/15 03:02:55;;;;;;;18.60;11.70;;;-2.00;75.00;;;;;;5036233;28;20029;-88
2022/12/15 03:05:23;;;;;;;16.20;10.60;;;-2.00;75.10;;;;;;5053452;28;20068;-87
2022/12/15 03:07:53;;;;;;;17.58;11.10;;;-2.00;75.10;;;;;;5035064;28;20029;-88
2022/12/15 03:10:22;;;;;;;17.98;10.77;;;-2.10;75.00;;;;;;5034776;28;20021;-88
2022/12/15 03:12:49;;;;;;;15.52;10.10;;;-2.00;75.00;;;;;;5016505;28;20116;-86
2022/12/15 03:15:15;;;;;;;16.50;10.50;;;-2.00;75.00;;;;;;5015264;28;20064;-85
2022/12/15 03:17:40;;;;;;;15.75;10.32;;;-2.00;75.00;;;;;;5027319;28;20021;-84
2022/12/15 03:20:07;;;;;;;16.63;10.52;;;-2.10;75.20;;;;;;5019034;28;20025;-87
2022/12/15 03:22:33;;;;;;;17.02;11.07;;;-2.10;75.00;;;;;;5022259;28;20030;-87
2022/12/15 03:24:59;;;;;;;16.67;11.13;;;-2.10;75.00;;;;;;5018278;28;20044;-87
2022/12/15 03:27:25;;;;;;;15.70;9.50;;;-2.10;74.90;;;;;;5050702;28;20033;-89
2022/12/15 03:29:50;;;;;;;13.77;9.38;;;-2.10;75.00;;;;;;5036078;28;20028;-89
2022/12/15 03:32:16;;;;;;;16.45;10.95;;;-2.10;74.90;;;;;;5030835;28;20216;-89
2022/12/15 03:34:41;;;;;;;16.25;9.90;;;-2.10;74.90;;;;;;5036070;28;20033;-89
2022/12/15 03:37:08;;;;;;;17.55;10.75;;;-2.10;74.90;;;;;;5027991;28;20029;-88
2022/12/15 03:39:33;;;;;;;14.90;9.63;;;-2.10;74.90;;;;;;5017909;28;20025;-88
2022/12/15 03:41:59;;;;;;;15.32;10.07;;;-2.10;74.90;;;;;;5022399;28;20032;-88
2022/12/15 03:44:24;;;;;;;17.60;11.13;;;-2.10;74.90;;;;;;5021643;28;20021;-88
2022/12/15 03:46:50;;;;;;;16.55;10.25;;;-2.10;75.00;;;;;;5030301;28;20037;-88
2022/12/15 03:49:16;;;;;;;15.95;10.27;;;-2.10;75.10;;;;;;5017590;28;20072;-89
2022/12/15 03:51:41;;;;;;;14.73;10.40;;;-2.10;75.70;;;;;;5026820;28;20040;-87
2022/12/15 03:54:07;;;;;;;15.90;10.38;;;-2.00;75.10;;;;;;5028470;28;20036;-88
2022/12/15 03:56:33;;;;;;;16.08;10.80;;;-2.10;75.00;;;;;;5046822;28;20028;-88
2022/12/15 03:58:59;;;;;;;14.98;9.80;;;-2.00;75.20;;;;;;5026274;28;20029;-86
2022/12/15 04:01:30;;;;;;;15.85;10.13;;;-2.10;75.10;;;;;;5044406;28;20495;-88
2022/12/15 04:03:56;;;;;;;17.98;11.95;;;-2.10;75.10;;;;;;5023432;28;20036;-87
2022/12/15 04:06:22;;;;;;;14.43;9.98;;;-2.10;75.20;;;;;;5034139;28;20044;-90
2022/12/15 04:08:48;;;;;;;13.88;9.52;;;-2.00;75.30;;;;;;5020085;28;20026;-90
2022/12/15 04:11:14;;;;;;;18.38;11.07;;;-2.00;75.30;;;;;;5033332;28;20110;-84
2022/12/15 04:13:40;;;;;;;14.77;9.90;;;-2.00;75.30;;;;;;5030306;28;20032;-86
2022/12/15 04:16:06;;;;;;;16.48;10.60;;;-2.00;75.30;;;;;;5029192;28;20030;-86
2022/12/15 04:18:32;;;;;;;14.73;10.60;;;-2.00;75.20;;;;;;5016918;28;20057;-87
2022/12/15 04:20:57;;;;;;;14.25;9.60;;;-2.00;75.20;;;;;;5014788;28;20048;-86
2022/12/15 04:23:23;;;;;;;17.20;10.90;;;-2.00;75.30;;;;;;5044201;28;20031;-86
2022/12/15 05:32:28;;;;;;;17.17;11.50;;;-2.60;75.90;;;;;;5054848;28;20090;-90
2022/12/15 05:34:53;;;;;;;16.08;10.02;;;-2.50;75.80;;;;;;5034454;28;20032;-90
2022/12/15 05:37:43;;;;;;;16.30;10.88;;;-2.50;75.80;;;;;;5028541;28;20132;-90
2022/12/15 05:40:10;;;;;;;16.70;10.45;;;-2.50;75.80;;;;;;5017242;28;20129;-91
2022/12/15 05:42:35;;;;;;;17.15;10.15;;;-2.50;75.80;;;;;;5017903;28;20525;-89
2022/12/15 05:45:01;;;;;;;16.27;10.60;;;-2.50;75.80;;;;;;5052470;28;20039;-89
2022/12/15 05:47:27;;;;;;;15.20;10.80;;;-2.50;75.80;;;;;;5033221;28;20112;-88
2022/12/15 05:49:52;;;;;;;18.67;12.07;;;-2.50;76.50;;;;;;5036043;28;20549;-87
2022/12/15 05:52:18;;;;;;;15.07;10.75;;;-2.50;75.90;;;;;;5036037;28;20025;-87
2022/12/15 05:54:43;;;;;;;20.38;12.65;;;-2.50;76.00;;;;;;5027690;28;20029;-89
2022/12/15 05:57:09;;;;;;;20.88;12.63;;;-2.50;76.00;;;;;;5034999;28;20110;-86
2022/12/15 05:59:35;;;;;;;18.25;11.40;;;-2.50;76.10;;;;;;5021606;28;20022;-87
2022/12/15 06:02:00;;;;;;;19.55;12.43;;;-2.50;76.00;;;;;;5020826;28;20017;-89
2022/12/15 06:04:27;;;;;;;18.35;12.15;;;-2.50;76.00;;;;;;5031017;28;20021;-88
2022/12/15 06:06:53;;;;;;;18.08;11.98;;;-2.50;76.10;;;;;;5034956;28;20032;-88
2022/12/15 06:09:18;;;;;;;17.67;12.43;;;-2.50;76.10;;;;;;5037624;28;20021;-88
2022/12/15 06:11:44;;;;;;;18.75;12.50;;;-2.50;76.10;;;;;;5034902;28;20040;-86
2022/12/15 06:14:09;;;;;;;21.27;13.68;;;-2.50;76.10;;;;;;5022779;28;20505;-87
2022/12/15 06:16:35;;;;;;;19.20;12.80;;;-2.50;76.20;;;;;;5036077;28;20025;-87
2022/12/15 06:19:01;;;;;;;18.45;11.77;;;-2.50;76.90;;;;;;5026891;28;20055;-88
2022/12/15 06:21:30;;;;;;;18.33;12.65;;;-2.50;76.30;;;;;;5035698;28;20032;-88
2022/12/15 06:23:56;;;;;;;19.48;12.70;;;-2.60;76.30;;;;;;5054343;28;20021;-88
2022/12/15 06:26:24;;;;;;;21.88;13.77;;;-2.50;76.40;;;;;;5053741;28;20017;-87
2022/12/15 06:28:51;;;;;;;20.58;13.27;;;-2.50;76.40;;;;;;5039548;28;20669;-87
2022/12/15 06:31:21;;;;;;;20.92;13.38;;;-2.50;76.40;;;;;;5029060;28;20033;-88
2022/12/15 06:33:47;;;;;;;19.33;12.43;;;-2.60;76.30;;;;;;5034593;28;20028;-91
2022/12/15 06:36:42;;;;;;;19.75;12.93;;;-2.50;76.40;;;;;;5044159;28;20020;-91
2022/12/15 06:39:29;;;;;;;22.13;13.85;;;-2.50;76.50;;;;;;5041736;28;20071;-91
2022/12/15 06:42:20;;;;;;;22.67;14.57;;;-2.50;76.60;;;;;;5063568;28;20021;-91
2022/12/15 06:45:08;;;;;;;18.75;12.80;;;-2.50;76.70;;;;;;5045123;28;20061;-90
2022/12/15 06:47:59;;;;;;;;;;;;;;;;;;;;;
2022/12/15 06:50:28;;;;;;;19.98;12.73;;;-2.50;76.60;;;;;;5055853;28;20129;-91
2022/12/15 06:52:53;;;;;;;22.65;13.88;;;-2.50;76.50;;;;;;5039225;28;20033;-89
2022/12/15 06:55:19;;;;;;;26.15;15.52;;;-2.60;76.50;;;;;;5025050;28;20040;-90
2022/12/15 06:58:06;;;;;;;31.80;17.63;;;-2.60;76.50;;;;;;5048998;28;20029;-91
2022/12/15 07:00:35;;;;;;;24.83;15.25;;;-2.60;76.60;;;;;;5052915;28;20027;-90
2022/12/15 07:03:01;;;;;;;29.08;18.08;;;-2.60;76.70;;;;;;5037486;28;20025;-90
2022/12/15 07:05:27;;;;;;;21.92;14.32;;;-2.70;76.70;;;;;;5040716;28;20084;-90
2022/12/15 07:10:51;;;;;;;21.40;12.98;;;-2.70;76.80;;;;;;5058293;28;20044;-89
2022/12/15 07:13:17;;;;;;;22.27;13.68;;;-2.60;76.80;;;;;;5040186;28;20017;-89
2022/12/15 07:15:43;;;;;;;24.92;15.63;;;-2.70;76.70;;;;;;5033133;28;20051;-91
2022/12/15 07:18:10;;;;;;;20.52;13.00;;;-2.70;76.70;;;;;;5021947;28;20018;-91
2022/12/15 07:20:36;;;;;;;20.58;13.50;;;-2.70;76.90;;;;;;5031136;28;20027;-91
2022/12/15 07:23:06;;;;;;;20.35;12.75;;;-2.70;76.90;;;;;;5037134;28;20049;-91
2022/12/15 07:25:34;;;;;;;19.92;13.18;;;-2.60;76.90;;;;;;5033190;28;20075;-90
2022/12/15 07:27:59;;;;;;;20.27;13.27;;;-2.60;76.80;;;;;;5036580;28;20023;-90
2022/12/15 07:30:25;;;;;;;22.92;13.93;;;-2.60;76.80;;;;;;5038923;28;20036;-90
2022/12/15 07:32:51;;;;;;;22.85;14.35;;;-2.60;76.70;;;;;;5038386;28;20025;-90
2022/12/15 07:35:17;;;;;;;24.45;15.50;;;-2.60;76.80;;;;;;5037396;28;20075;-91
2022/12/15 07:37:44;;;;;;;20.95;13.07;;;-2.70;76.80;;;;;;5033147;28;20128;-92
2022/12/15 07:40:10;;;;;;;22.67;14.88;;;-2.60;77.00;;;;;;5037468;28;20059;-92
2022/12/15 07:42:36;;;;;;;23.98;14.85;;;-2.70;77.00;;;;;;5037721;28;20096;-92
2022/12/15 07:45:04;;;;;;;22.58;14.63;;;-2.70;76.90;;;;;;5036540;28;20025;-93
2022/12/15 07:47:29;;;;;;;22.33;13.60;;;-2.70;76.90;;;;;;5031742;28;20017;-91
2022/12/15 07:49:55;;;;;;;24.20;15.32;;;-2.70;77.00;;;;;;5020824;28;20370;-92
2022/12/15 07:52:21;;;;;;;19.65;12.48;;;-2.70;77.00;;;;;;5019908;28;20024;-91
2022/12/15 07:54:47;;;;;;;22.60;14.32;;;-2.70;77.00;;;;;;5037866;28;20062;-91
2022/12/15 07:57:12;;;;;;;24.98;15.05;;;-2.70;77.00;;;;;;5039995;28;20033;-91
2022/12/15 07:59:38;;;;;;;27.05;16.65;;;-2.60;77.00;;;;;;5031450;28;20013;-92
2022/12/15 08:02:04;;;;;;;23.27;15.10;;;-2.60;76.90;;;;;;5023526;28;20025;-91
2022/12/15 08:04:30;;;;;;;23.20;14.57;;;-2.70;77.00;;;;;;5014056;28;20041;-91
2022/12/15 08:06:57;;;;;;;21.38;14.45;;;-2.60;77.00;;;;;;5023251;28;20103;-92
2022/12/15 08:09:23;;;;;;;27.10;17.17;;;-2.60;77.00;;;;;;5016046;28;20033;-92
2022/12/15 08:11:49;;;;;;;25.70;17.08;;;-2.60;77.00;;;;;;5023003;28;20025;-91
2022/12/15 08:14:15;;;;;;;26.15;17.73;;;-2.60;77.30;;;;;;5042674;28;20029;-93
2022/12/15 08:16:41;;;;;;;28.38;16.80;;;-2.60;77.40;;;;;;5038446;28;20041;-91
2022/12/15 08:19:10;;;;;;;24.45;15.93;;;-2.60;77.50;;;;;;5039492;28;20028;-91
2022/12/15 08:21:37;;;;;;;24.45;16.58;;;-2.60;77.40;;;;;;5040530;28;20028;-92
2022/12/15 08:24:03;;;;;;;26.70;16.02;;;-2.50;77.40;;;;;;5040030;28;20032;-92
2022/12/15 08:26:29;;;;;;;26.67;16.88;;;-2.50;77.30;;;;;;5040978;28;20025;-91
2022/12/15 08:28:54;;;;;;;25.70;16.02;;;-2.40;77.40;;;;;;5041066;28;20033;-92
2022/12/15 08:31:22;;;;;;;24.98;16.73;;;-2.40;77.40;;;;;;5058379;28;20047;-91
2022/12/15 08:33:48;;;;;;;30.13;17.85;;;-2.30;77.40;;;;;;5069515;28;20021;-92
2022/12/15 08:36:16;;;;;;;23.75;15.60;;;-2.30;77.20;;;;;;5058215;28;20092;-91
2022/12/15 08:38:43;;;;;;;21.65;14.45;;;-2.30;77.20;;;;;;5056969;28;20075;-91
2022/12/15 08:41:18;;;;;;;23.60;15.27;;;-2.20;77.20;;;;;;5070597;28;20044;-91
2022/12/15 08:43:45;;;;;;;23.70;14.32;;;-2.20;77.20;;;;;;5050865;28;20020;-91
2022/12/15 08:46:12;;;;;;;22.98;15.00;;;-2.10;77.10;;;;;;5047021;28;20395;-91
2022/12/15 08:48:37;;;;;;;24.90;16.65;;;-2.00;77.10;;;;;;5042938;28;20021;-92
2022/12/15 08:51:03;;;;;;;26.88;17.23;;;-2.00;77.10;;;;;;5053650;28;20012;-91
2022/12/15 08:53:29;;;;;;;27.58;18.25;;;-2.00;77.20;;;;;;5052873;28;20432;-91
2022/12/15 08:55:54;;;;;;;24.45;16.27;;;-2.00;77.20;;;;;;5041109;28;20020;-92
2022/12/15 08:58:20;;;;;;;28.00;18.80;;;-2.00;77.20;;;;;;5051190;28;20045;-91
2022/12/15 09:00:46;;;;;;;28.38;18.55;;;-1.90;77.20;;;;;;5058179;28;20005;-91
2022/12/15 09:03:12;;;;;;;28.15;17.75;;;-2.00;77.20;;;;;;5060165;28;20012;-91
2022/12/15 09:05:38;;;;;;;24.65;16.13;;;-1.90;77.30;;;;;;5058529;28;20013;-92
2022/12/15 09:08:04;;;;;;;23.85;16.10;;;-1.90;77.30;;;;;;5058348;28;20017;-92
2022/12/15 09:10:30;;;;;;;24.83;15.93;;;-1.90;77.30;;;;;;5056003;28;20039;-91
2022/12/15 09:12:56;;;;;;;22.92;15.63;;;-1.90;77.30;;;;;;5062125;28;20025;-91
2022/12/15 09:15:21;;;;;;;32.75;19.40;;;-1.90;77.30;;;;;;5051334;28;20021;-92
2022/12/15 09:17:47;;;;;;;28.17;16.92;;;-1.80;77.40;;;;;;5042832;28;20085;-92
2022/12/15 09:20:13;;;;;;;24.67;16.27;;;-1.80;77.40;;;;;;5052977;28;20036;-93
2022/12/15 09:22:41;;;;;;;24.95;16.70;;;-1.70;77.40;;;;;;5072878;28;20063;-93
2022/12/15 09:25:08;;;;;;;24.65;16.45;;;-1.70;77.30;;;;;;5073296;28;20031;-93
2022/12/15 09:27:33;;;;;;;26.48;17.85;;;-1.70;77.30;;;;;;5061941;28;20021;-95
2022/12/15 09:30:00;;;;;;;32.95;21.42;;;-1.70;77.30;;;;;;5062260;28;20047;-93
2022/12/15 09:32:26;;;;;;;36.47;22.77;;;-1.70;77.40;;;;;;5073918;28;20035;-94
2022/12/15 09:34:53;;;;;;;33.60;19.30;;;-1.70;77.60;;;;;;5069828;28;20028;-94
2022/12/15 09:37:20;;;;;;;28.08;18.58;;;-1.60;77.70;;;;;;5069232;28;20009;-94
2022/12/15 09:39:46;;;;;;;27.00;17.83;;;-1.60;77.60;;;;;;5070180;28;20051;-94
2022/12/15 09:42:27;;;;;;;27.45;18.75;;;-1.60;77.70;;;;;;5061909;28;20009;-94
2022/12/15 09:45:06;;;;;;;29.73;19.17;;;-1.60;77.70;;;;;;5061666;28;20048;-94
2022/12/15 09:47:49;;;;;;;28.30;17.90;;;-1.50;77.70;;;;;;5054386;28;20036;-94
2022/12/15 09:50:18;;;;;;;28.65;19.42;;;-1.40;77.70;;;;;;5061537;28;20084;-95
2022/12/15 09:52:52;;;;;;;29.90;19.48;;;-1.30;77.60;;;;;;5057363;28;20038;-95
2022/12/15 09:55:20;;;;;;;31.50;19.02;;;-1.30;77.50;;;;;;5056969;28;20041;-94
2022/12/15 09:57:54;;;;;;;32.33;20.58;;;-1.20;77.50;;;;;;5080354;28;20004;-93
2022/12/15 10:00:31;;;;;;;28.77;19.02;;;-1.10;77.50;;;;;;5069285;28;20042;-93
2022/12/15 10:03:36;;;;;;;28.45;18.67;;;-1.10;77.50;;;;;;5061371;28;19998;-94
2022/12/15 10:06:17;;;;;;;37.42;24.58;;;-1.00;77.50;;;;;;5043884;28;20116;-93
2022/12/15 10:08:46;;;;;;;28.65;20.25;;;-1.10;77.50;;;;;;5061260;28;20028;-93
2022/12/15 10:11:31;;;;;;;31.48;19.88;;;-1.00;77.60;;;;;;5060646;28;20029;-93
2022/12/15 10:14:18;;;;;;;29.17;20.17;;;-0.90;77.50;;;;;;5057074;28;20080;-92
2022/12/15 10:17:09;;;;;;;32.53;18.63;;;-0.90;77.40;;;;;;5057285;28;20032;-93
2022/12/15 10:19:48;;;;;;;27.80;17.70;;;-0.80;77.40;;;;;;5059936;28;20070;-92
2022/12/15 10:22:21;;;;;;;30.75;19.88;;;-0.80;77.40;;;;;;5067253;28;20205;-92
2022/12/15 10:24:47;;;;;;;34.38;21.13;;;-0.70;77.30;;;;;;5059709;28;20024;-92
2022/12/15 10:27:16;;;;;;;37.47;23.88;;;-0.70;77.30;;;;;;5058286;28;20084;-92
2022/12/15 10:29:46;;;;;;;35.95;24.58;;;-0.60;77.50;;;;;;5073738;28;20009;-91
2022/12/15 10:32:23;;;;;;;34.67;23.58;;;-0.70;77.70;;;;;;5059417;28;20041;-91
2022/12/15 10:34:49;;;;;;;32.35;21.95;;;-0.70;77.90;;;;;;5060365;28;20047;-92
2022/12/15 10:37:19;;;;;;;37.80;27.02;;;-0.50;78.50;;;;;;5059588;28;20009;-91
2022/12/15 10:39:49;;;;;;;35.33;23.27;;;-0.50;77.90;;;;;;5059558;28;20510;-91
2022/12/15 10:42:24;;;;;;;32.67;21.95;;;-0.40;78.00;;;;;;5059251;28;20017;-91
2022/12/15 10:44:53;;;;;;;43.13;27.63;;;-0.40;77.90;;;;;;5062215;28;20032;-90
2022/12/15 10:47:24;;;;;;;36.22;23.25;;;-0.30;77.90;;;;;;5047327;28;20092;-90
2022/12/15 10:49:51;;;;;;;32.28;21.48;;;-0.30;77.90;;;;;;5040641;28;20111;-91
2022/12/15 10:52:35;;;;;;;36.45;24.35;;;-0.20;77.90;;;;;;5039673;28;20024;-91
2022/12/15 10:55:01;;;;;;;42.38;27.73;;;-0.20;77.80;;;;;;5042994;28;20198;-90
2022/12/15 10:57:30;;;;;;;35.85;23.55;;;-0.10;78.00;;;;;;5036487;28;20076;-90
2022/12/15 11:00:17;;;;;;;33.10;21.83;;;-0.10;78.00;;;;;;5040408;28;20047;-91
2022/12/15 11:02:43;;;;;;;33.88;23.15;;;0.00;78.10;;;;;;5022307;28;20025;-91
2022/12/15 11:05:14;;;;;;;33.60;23.85;;;0.00;78.00;;;;;;5036131;28;20110;-90
2022/12/15 11:07:43;;;;;;;32.63;22.87;;;0.00;78.10;;;;;;5038189;28;20029;-90
2022/12/15 11:13:16;;;;;;;32.83;22.25;;;0.30;78.20;;;;;;5050733;28;20072;-90
2022/12/15 11:15:44;;;;;;;36.00;22.45;;;0.30;78.00;;;;;;5041282;28;20017;-90
2022/12/15 11:18:26;;;;;;;32.40;22.70;;;0.40;78.00;;;;;;5036789;28;20029;-90
2022/12/15 11:21:03;;;;;;;33.50;23.27;;;0.50;78.10;;;;;;5040148;28;20059;-90
2022/12/15 11:23:49;;;;;;;32.10;22.40;;;0.60;78.10;;;;;;5033031;28;20086;-90
2022/12/15 11:26:53;;;;;;;34.30;23.17;;;0.60;78.10;;;;;;5043066;28;20024;-90
2022/12/15 11:29:37;;;;;;;38.88;27.33;;;0.70;78.00;;;;;;5053168;28;20033;-91
2022/12/15 11:32:04;;;;;;;32.05;22.83;;;0.70;77.90;;;;;;5032880;28;20029;-90
2022/12/15 11:34:36;;;;;;;38.40;25.55;;;0.70;78.00;;;;;;5038292;28;20017;-89
2022/12/15 11:37:26;;;;;;;33.03;22.27;;;0.80;78.20;;;;;;5039338;28;20024;-89
2022/12/15 11:40:14;;;;;;;35.30;24.25;;;0.90;78.30;;;;;;5029575;28;20033;-90
2022/12/15 11:43:09;;;;;;;30.45;22.02;;;0.90;78.20;;;;;;5027156;28;20029;-89
2022/12/15 11:46:00;;;;;;;31.50;22.30;;;0.90;78.40;;;;;;5023259;28;20037;-90
2022/12/15 11:48:36;;;;;;;31.30;22.23;;;1.10;78.10;;;;;;5025510;28;20021;-89
2022/12/15 11:51:12;;;;;;;35.05;23.92;;;1.20;78.00;;;;;;5032933;28;20047;-90
2022/12/15 11:54:03;;;;;;;33.67;24.42;;;1.30;77.90;;;;;;5040768;28;20025;-89
2022/12/15 11:56:31;;;;;;;31.15;20.67;;;1.30;77.90;;;;;;5033520;28;20078;-89
2022/12/15 11:59:06;;;;;;;39.28;26.17;;;1.30;77.80;;;;;;5034278;28;20515;-87
2022/12/15 12:02:05;;;;;;;30.20;19.98;;;1.40;78.00;;;;;;5044104;28;20021;-87
2022/12/15 12:04:58;;;;;;;37.05;25.17;;;1.50;78.00;;;;;;5037374;28;20021;-87
2022/12/15 12:07:39;;;;;;;29.77;20.70;;;1.50;77.90;;;;;;5041756;28;20112;-87
2022/12/15 12:10:11;;;;;;;27.63;18.08;;;1.80;78.00;;;;;;5041161;28;20285;-87
2022/12/15 12:12:52;;;;;;;28.27;19.83;;;1.90;77.70;;;;;;5041769;28;20131;-87
2022/12/15 12:15:24;;;;;;;25.52;18.33;;;2.10;77.40;;;;;;5054675;28;20021;-87
2022/12/15 12:17:57;;;;;;;32.40;22.70;;;2.20;77.00;;;;;;5056881;28;20091;-87
2022/12/15 12:20:44;;;;;;;29.13;20.70;;;2.20;76.80;;;;;;5034588;28;20188;-88
2022/12/15 12:23:30;;;;;;;35.65;24.95;;;2.20;76.90;;;;;;5038783;28;20047;-88
2022/12/15 12:26:12;;;;;;;35.63;25.27;;;2.40;77.10;;;;;;5033665;28;20386;-88
2022/12/15 12:28:58;;;;;;;33.03;24.35;;;3.80;75.90;;;;;;5025892;28;20280;-88
2022/12/15 12:31:57;;;;;;;30.15;21.60;;;5.00;72.70;;;;;;5031806;28;20033;-87
2022/12/15 12:34:28;;;;;;;31.70;22.58;;;6.20;70.50;;;;;;5039286;28;20084;-87
2022/12/15 12:37:03;;;;;;;28.70;20.93;;;6.80;68.40;;;;;;5039684;28;20017;-87
2022/12/15 12:39:31;;;;;;;25.88;19.90;;;7.40;67.50;;;;;;5031369;28;20034;-88
2022/12/15 12:41:57;;;;;;;29.33;21.90;;;7.60;66.10;;;;;;5033498;28;20111;-88
2022/12/15 12:44:32;;;;;;;32.17;22.70;;;7.60;64.90;;;;;;5033248;28;20161;-88
2022/12/15 12:47:11;;;;;;;27.95;20.73;;;7.40;63.90;;;;;;5033747;28;20017;-88
2022/12/15 12:49:44;;;;;;;28.08;20.42;;;7.00;64.60;;;;;;5056073;28;20029;-87
2022/12/15 12:52:21;;;;;;;36.67;24.67;;;7.20;64.60;;;;;;5036491;28;20033;-87
2022/12/15 12:54:55;;;;;;;33.22;24.00;;;7.10;63.00;;;;;;5035728;28;20020;-87
2022/12/15 12:57:37;;;;;;;31.08;21.98;;;6.40;63.40;;;;;;5038502;28;20025;-87
2022/12/15 13:00:26;;;;;;;23.40;17.35;;;6.60;64.20;;;;;;5037339;28;20040;-87
2022/12/15 13:02:58;;;;;;;24.73;17.65;;;7.20;63.90;;;;;;5036894;28;20514;-87
2022/12/15 13:05:25;;;;;;;27.15;20.13;;;7.10;63.00;;;;;;5045328;28;20051;-87
2022/12/15 13:08:06;;;;;;;25.52;18.38;;;6.20;63.60;;;;;;5039208;28;20021;-87
2022/12/15 13:10:44;;;;;;;22.35;16.85;;;5.50;65.40;;;;;;5030297;28;20029;-87
2022/12/15 13:13:28;;;;;;;34.22;23.67;;;5.00;66.40;;;;;;5033440;28;20025;-87
2022/12/15 13:16:22;;;;;;;32.22;23.42;;;4.50;67.00;;;;;;5033972;28;20442;-87
2022/12/15 13:19:05;;;;;;;25.90;18.70;;;4.10;67.60;;;;;;5030542;28;20013;-87
2022/12/15 13:21:47;;;;;;;27.33;19.67;;;3.90;68.40;;;;;;5053544;28;20021;-87
2022/12/15 13:24:44;;;;;;;28.65;20.13;;;3.70;68.80;;;;;;5055341;28;20108;-86
2022/12/15 13:27:36;;;;;;;22.15;16.75;;;3.60;69.20;;;;;;5044481;28;20029;-86
2022/12/15 13:30:22;;;;;;;23.52;15.50;;;3.40;69.50;;;;;;5032905;28;20041;-87
2022/12/15 13:32:57;;;;;;;27.58;18.95;;;3.30;69.90;;;;;;5033772;28;20118;-87
2022/12/15 13:35:33;;;;;;;35.00;25.20;;;3.20;70.20;;;;;;5037276;28;20024;-87
2022/12/15 13:38:06;;;;;;;32.13;23.23;;;3.10;70.60;;;;;;5035230;28;20351;-87
2022/12/15 13:40:34;;;;;;;31.83;22.23;;;3.00;70.90;;;;;;5032550;28;20033;-87
2022/12/15 13:43:03;;;;;;;30.92;22.25;;;2.90;71.30;;;;;;5040761;28;20074;-87
2022/12/15 13:45:54;;;;;;;29.05;20.05;;;2.90;71.50;;;;;;5037807;28;20059;-87
2022/12/15 13:48:38;;;;;;;29.35;20.63;;;2.80;71.80;;;;;;5036898;28;20036;-86
2022/12/15 13:51:22;;;;;;;32.53;21.88;;;2.90;71.90;;;;;;5042395;28;20021;-87
2022/12/15 13:54:14;;;;;;;36.10;25.02;;;2.80;71.90;;;;;;5030207;28;20036;-82
2022/12/15 13:57:13;;;;;;;32.28;22.30;;;2.60;72.10;;;;;;5054707;28;20033;-86
2022/12/15 13:59:38;;;;;;;32.17;22.55;;;2.60;72.50;;;;;;5049923;28;20021;-84
2022/12/15 14:02:28;;;;;;;35.13;24.10;;;2.60;72.70;;;;;;5036729;28;20043;-88
2022/12/15 14:05:13;;;;;;;33.13;23.92;;;2.60;72.80;;;;;;5032073;28;20392;-88
2022/12/15 14:07:45;;;;;;;36.72;25.05;;;2.60;72.90;;;;;;5031642;28;20079;-87
2022/12/15 14:10:23;;;;;;;;;;;2.50;73.00;;;;;;5031977;28;20361;-87
2022/12/15 14:12:51;;;;;;;28.55;20.83;;;2.50;73.10;;;;;;5031852;28;20367;-88
2022/12/15 14:15:25;;;;;;;29.25;19.73;;;2.40;73.30;;;;;;5040019;28;20510;-88
2022/12/15 14:17:54;;;;;;;30.00;21.80;;;2.50;73.50;;;;;;5046123;28;20119;-90
2022/12/15 14:20:26;;;;;;;27.73;19.20;;;2.40;73.50;;;;;;5032699;28;20075;-88
2022/12/15 14:22:53;;;;;;;29.48;20.95;;;2.40;73.60;;;;;;5034406;28;20546;-88
2022/12/15 14:25:25;;;;;;;34.45;24.17;;;2.40;73.60;;;;;;5038253;28;20064;-88
2022/12/15 14:27:51;;;;;;;;;;;2.40;73.80;;;;;;5033698;28;20239;-88
2022/12/15 14:30:24;;;;;;;28.55;20.38;;;2.30;73.80;;;;;;5052499;28;20355;-88
2022/12/15 14:33:13;;;;;;;28.33;21.23;;;2.30;74.10;;;;;;5034944;28;20021;-88
2022/12/15 14:35:43;;;;;;;30.25;20.90;;;2.30;74.30;;;;;;5039201;28;20475;-88
2022/12/15 14:38:16;;;;;;;37.15;25.67;;;2.20;74.30;;;;;;5037495;28;20024;-87
2022/12/15 14:40:45;;;;;;;29.17;20.98;;;2.20;74.50;;;;;;5025744;28;20036;-88
2022/12/15 14:43:24;;;;;;;30.63;21.30;;;2.20;74.60;;;;;;5038274;28;20040;-87
2022/12/15 14:45:55;;;;;;;29.80;20.63;;;2.30;74.70;;;;;;5046479;28;20108;-88
2022/12/15 14:48:33;;;;;;;26.38;19.35;;;2.30;74.70;;;;;;5028644;28;20025;-88
2022/12/15 14:51:00;;;;;;;26.65;18.95;;;2.40;74.60;;;;;;5027582;28;20040;-88
2022/12/15 14:53:32;;;;;;;29.45;20.67;;;2.40;74.50;;;;;;5020966;28;20492;-88
2022/12/15 14:56:10;;;;;;;;;;;2.40;74.50;;;;;;5015295;28;20540;-88
2022/12/15 14:58:39;;;;;;;33.20;21.08;;;2.40;74.50;;;;;;5045797;28;20345;-88
2022/12/15 15:01:28;;;;;;;25.88;18.85;;;2.30;74.70;;;;;;5032595;28;20021;-88
2022/12/15 15:04:02;;;;;;;34.47;21.83;;;2.30;74.90;;;;;;5032603;28;20030;-88
2022/12/15 15:06:35;;;;;;;31.10;20.80;;;2.20;75.00;;;;;;5030190;28;20044;-87
2022/12/15 15:09:19;;;;;;;32.13;22.08;;;2.20;75.10;;;;;;5036471;28;20032;-87
2022/12/15 15:11:49;;;;;;;34.17;22.17;;;2.20;75.30;;;;;;5021955;28;20032;-88
2022/12/15 15:14:24;;;;;;;33.88;22.58;;;2.20;75.40;;;;;;5028204;28;20052;-88
2022/12/15 15:17:26;;;;;;;33.83;23.30;;;2.10;75.50;;;;;;5020754;28;20075;-88
2022/12/15 15:19:56;;;;;;;32.60;21.90;;;2.10;75.60;;;;;;5024776;28;20044;-88
2022/12/15 15:22:25;;;;;;;27.10;19.55;;;2.10;75.60;;;;;;5033556;28;20040;-88
2022/12/15 15:24:51;;;;;;;31.50;21.25;;;2.10;75.80;;;;;;5033493;28;20029;-88
2022/12/15 15:27:48;;;;;;;29.95;20.20;;;2.10;75.80;;;;;;5042665;28;20159;-88